createdAt,value
2017-12-21T00:01:04.809Z,22.60
2017-12-21T00:03:31.183Z,21.80
2017-12-21T00:05:57.463Z,22.10
2017-12-21T00:08:24.171Z,18.77
2017-12-21T00:10:50.462Z,23.67
2017-12-21T00:13:17.485Z,20.43
2017-12-21T00:15:43.797Z,19.93
2017-12-21T00:18:10.139Z,22.93
2017-12-21T00:20:37.284Z,23.97
2017-12-21T00:23:03.642Z,19.77
2017-12-21T00:25:29.943Z,24.50
2017-12-21T00:27:56.226Z,23.37
2017-12-21T00:30:22.519Z,25.20
2017-12-21T00:32:49.550Z,23.27
2017-12-21T00:35:16.566Z,26.70
2017-12-21T00:37:42.874Z,25.00
2017-12-21T00:40:09.147Z,24.77
2017-12-21T00:42:35.423Z,24.60
2017-12-21T00:45:02.490Z,21.13
2017-12-21T00:47:28.776Z,24.63
2017-12-21T00:49:55.791Z,22.47
2017-12-21T00:52:22.097Z,25.70
2017-12-21T00:54:48.407Z,25.93
2017-12-21T00:57:14.678Z,21.57
2017-12-21T00:59:40.982Z,23.13
2017-12-21T01:02:07.999Z,23.20
2017-12-21T01:04:35.024Z,24.57
2017-12-21T01:07:01.338Z,22.53
2017-12-21T01:09:27.602Z,23.47
2017-12-21T01:11:53.880Z,25.30
2017-12-21T01:14:20.182Z,22.70
2017-12-21T01:16:46.446Z,25.67
2017-12-21T01:19:13.450Z,27.20
2017-12-21T01:21:39.802Z,25.77
2017-12-21T01:24:06.830Z,29.27
2017-12-21T01:26:33.847Z,28.47
2017-12-21T01:29:00.130Z,25.93
2017-12-21T01:31:26.435Z,27.13
2017-12-21T01:33:52.730Z,25.70
2017-12-21T01:36:19.046Z,29.17
2017-12-21T01:38:45.318Z,24.00
2017-12-21T01:41:11.733Z,21.70
2017-12-21T01:43:38.069Z,24.83
2017-12-21T01:46:05.098Z,27.73
2017-12-21T01:48:32.136Z,24.30
2017-12-21T01:50:59.200Z,24.07
2017-12-21T01:53:25.518Z,26.03
2017-12-21T01:55:51.801Z,27.10
2017-12-21T01:58:18.872Z,28.10
2017-12-21T02:00:45.165Z,26.37
2017-12-21T02:03:11.435Z,25.90
2017-12-21T02:05:37.767Z,26.13
2017-12-21T02:08:04.062Z,28.83
2017-12-21T02:10:30.423Z,20.17
2017-12-21T02:12:57.490Z,22.67
2017-12-21T02:15:23.790Z,22.23
2017-12-21T02:17:50.106Z,25.87
2017-12-21T02:20:16.454Z,26.47
2017-12-21T02:22:42.807Z,22.50
2017-12-21T02:25:09.111Z,27.30
2017-12-21T02:27:35.461Z,25.93
2017-12-21T02:30:01.774Z,23.87
2017-12-21T02:32:28.091Z,22.60
2017-12-21T02:34:54.407Z,22.90
2017-12-21T02:37:20.722Z,23.67
2017-12-21T02:39:47.038Z,24.07
2017-12-21T02:42:13.392Z,25.57
2017-12-21T02:44:39.710Z,22.87
2017-12-21T02:47:06.018Z,25.87
2017-12-21T02:49:32.350Z,23.33
2017-12-21T02:51:58.671Z,23.97
2017-12-21T02:54:24.996Z,24.77
2017-12-21T02:56:51.453Z,25.73
2017-12-21T02:59:17.757Z,26.40
2017-12-21T03:01:44.809Z,23.53
2017-12-21T03:04:11.150Z,23.90
2017-12-21T03:06:37.474Z,22.60
2017-12-21T03:09:03.794Z,24.27
2017-12-21T03:11:30.158Z,22.87
2017-12-21T03:13:56.474Z,19.77
2017-12-21T03:16:23.521Z,25.47
2017-12-21T03:18:49.842Z,25.17
2017-12-21T03:21:16.157Z,27.53
2017-12-21T03:23:42.451Z,25.40
2017-12-21T03:26:09.497Z,27.50
2017-12-21T03:28:35.768Z,25.27
2017-12-21T03:31:02.091Z,22.43
2017-12-21T03:33:28.427Z,24.50
2017-12-21T03:35:55.478Z,23.17
2017-12-21T03:38:21.807Z,22.97
2017-12-21T03:40:48.134Z,22.97
2017-12-21T03:43:14.434Z,19.30
2017-12-21T03:45:40.736Z,19.60
2017-12-21T03:48:07.054Z,21.07
2017-12-21T03:50:33.360Z,22.97
2017-12-21T03:53:00.386Z,23.10
2017-12-21T03:55:27.460Z,26.60
2017-12-21T03:57:53.778Z,23.77
2017-12-21T04:00:20.093Z,24.77
2017-12-21T04:02:46.402Z,20.43
2017-12-21T04:05:12.777Z,17.83
2017-12-21T04:07:39.058Z,22.27
2017-12-21T04:10:05.353Z,23.30
2017-12-21T04:12:31.639Z,22.93
2017-12-21T04:14:58.679Z,21.93
2017-12-21T04:17:25.016Z,20.20
2017-12-21T04:19:52.047Z,24.50
2017-12-21T04:22:18.358Z,23.90
2017-12-21T04:24:44.670Z,24.57
2017-12-21T04:27:10.962Z,25.43
2017-12-21T04:29:37.971Z,26.30
2017-12-21T04:32:04.301Z,22.83
2017-12-21T04:34:31.338Z,21.47
2017-12-21T04:36:58.369Z,21.30
2017-12-21T04:39:25.444Z,22.20
2017-12-21T04:41:51.766Z,22.67
2017-12-21T04:44:18.071Z,22.63
2017-12-21T04:46:44.388Z,24.70
2017-12-21T04:49:10.694Z,18.90
2017-12-21T04:51:36.983Z,23.03
2017-12-21T04:54:04.223Z,22.90
2017-12-21T04:56:33.695Z,21.30
2017-12-21T04:59:02.036Z,20.87
2017-12-21T05:01:30.974Z,21.03
2017-12-21T05:03:59.706Z,19.23
2017-12-21T05:06:28.354Z,18.70
2017-12-21T05:08:54.669Z,22.43
2017-12-21T05:11:20.966Z,18.43
2017-12-21T05:13:47.263Z,19.33
2017-12-21T05:16:13.570Z,21.27
2017-12-21T05:18:39.851Z,18.53
2017-12-21T05:21:06.163Z,21.93
2017-12-21T05:23:33.101Z,22.90
2017-12-21T05:25:59.390Z,19.03
2017-12-21T05:28:25.669Z,20.17
2017-12-21T05:30:52.063Z,21.43
2017-12-21T05:33:19.075Z,19.37
2017-12-21T05:35:45.347Z,19.80
2017-12-21T05:38:11.635Z,22.73
2017-12-21T05:40:38.658Z,24.63
2017-12-21T05:43:05.692Z,21.90
2017-12-21T05:45:32.736Z,23.70
2017-12-21T05:47:59.014Z,20.73
2017-12-21T05:50:25.316Z,25.00
2017-12-21T05:52:51.633Z,20.57
2017-12-21T05:55:17.928Z,21.07
2017-12-21T05:57:44.210Z,24.43
2017-12-21T06:00:11.292Z,21.37
2017-12-21T06:02:37.576Z,19.60
2017-12-21T06:05:03.856Z,22.90
2017-12-21T06:07:30.184Z,23.27
2017-12-21T06:09:57.195Z,21.20
2017-12-21T06:12:23.519Z,25.07
2017-12-21T06:14:49.816Z,22.37
2017-12-21T06:17:16.101Z,24.03
2017-12-21T06:19:42.362Z,27.43
2017-12-21T06:22:08.667Z,25.07
2017-12-21T06:24:34.963Z,25.10
2017-12-21T06:27:01.253Z,24.67
2017-12-21T06:29:27.550Z,22.63
2017-12-21T06:31:53.829Z,26.83
2017-12-21T06:34:20.104Z,29.20
2017-12-21T06:36:46.410Z,29.47
2017-12-21T06:39:12.688Z,33.67
2017-12-21T06:41:38.950Z,32.77
2017-12-21T06:44:05.266Z,35.97
2017-12-21T06:46:32.273Z,34.27
2017-12-21T06:48:58.538Z,29.70
2017-12-21T06:51:24.826Z,35.27
2017-12-21T06:53:51.106Z,27.70
2017-12-21T06:56:18.116Z,28.97
2017-12-21T06:58:44.422Z,26.10
2017-12-21T07:01:10.693Z,23.77
2017-12-21T07:03:36.979Z,27.07
2017-12-21T07:06:04.039Z,29.07
2017-12-21T07:08:30.321Z,26.70
2017-12-21T07:10:56.632Z,25.90
2017-12-21T07:13:22.945Z,28.10
2017-12-21T07:15:49.231Z,27.83
2017-12-21T07:18:16.241Z,24.67
2017-12-21T07:20:42.534Z,31.43
2017-12-21T07:23:08.830Z,30.60
2017-12-21T07:25:35.093Z,27.40
2017-12-21T07:28:01.394Z,38.03
2017-12-21T07:30:27.682Z,46.10
2017-12-21T07:32:53.975Z,33.67
2017-12-21T07:35:20.288Z,28.63
2017-12-21T07:37:46.588Z,28.90
2017-12-21T07:40:13.608Z,28.23
2017-12-21T07:42:39.907Z,27.13
2017-12-21T07:45:06.208Z,27.43
2017-12-21T07:47:32.479Z,29.37
2017-12-21T07:49:58.818Z,27.27
2017-12-21T07:52:25.139Z,25.10
2017-12-21T07:54:51.429Z,24.53
2017-12-21T07:57:17.745Z,23.40
2017-12-21T07:59:44.160Z,25.37
2017-12-21T08:02:10.439Z,22.53
2017-12-21T08:04:36.857Z,21.87
2017-12-21T08:07:03.887Z,24.23
2017-12-21T08:09:30.188Z,22.37
2017-12-21T08:11:56.484Z,23.27
2017-12-21T08:14:22.816Z,21.23
2017-12-21T08:16:49.076Z,20.23
2017-12-21T08:19:16.110Z,20.90
2017-12-21T08:21:43.120Z,21.17
2017-12-21T08:24:09.400Z,22.10
2017-12-21T08:26:36.655Z,22.30
2017-12-21T08:29:02.979Z,22.73
2017-12-21T08:31:29.243Z,21.77
2017-12-21T08:33:55.573Z,22.83
2017-12-21T08:36:21.902Z,24.00
2017-12-21T08:38:48.178Z,23.10
2017-12-21T08:41:15.207Z,24.33
2017-12-21T08:43:42.207Z,24.07
2017-12-21T08:46:08.558Z,22.07
2017-12-21T08:48:34.846Z,21.77
2017-12-21T08:51:01.113Z,21.87
2017-12-21T08:53:27.382Z,19.87
2017-12-21T08:55:53.671Z,20.17
2017-12-21T08:58:19.960Z,23.60
2017-12-21T09:00:46.291Z,21.07
2017-12-21T09:03:14.173Z,23.17
2017-12-21T09:05:42.391Z,22.37
2017-12-21T09:08:08.663Z,22.53
2017-12-21T09:10:35.756Z,22.83
2017-12-21T09:13:02.079Z,21.93
2017-12-21T09:15:28.392Z,19.00
2017-12-21T09:17:54.715Z,20.60
2017-12-21T09:20:21.037Z,21.87
2017-12-21T09:22:47.323Z,21.10
2017-12-21T09:25:13.694Z,20.50
2017-12-21T09:27:40.744Z,29.13
2017-12-21T09:30:07.056Z,17.87
2017-12-21T09:32:33.361Z,18.47
2017-12-21T09:35:00.451Z,17.13
2017-12-21T09:37:26.872Z,21.67
2017-12-21T09:39:53.167Z,23.70
2017-12-21T09:42:19.455Z,22.73
2017-12-21T09:44:46.174Z,20.07
2017-12-21T09:47:12.735Z,16.50
2017-12-21T09:49:39.006Z,14.23
2017-12-21T09:52:06.110Z,12.80
2017-12-21T09:54:32.426Z,12.47
2017-12-21T09:56:58.697Z,13.30
2017-12-21T09:59:25.712Z,12.10
2017-12-21T10:01:52.048Z,10.70
2017-12-21T10:04:18.570Z,11.00
2017-12-21T10:06:44.843Z,11.87
2017-12-21T10:09:11.148Z,11.60
2017-12-21T10:11:37.421Z,12.20
2017-12-21T10:14:03.713Z,12.00
2017-12-21T10:16:30.075Z,10.90
2017-12-21T10:18:56.435Z,11.90
2017-12-21T10:21:23.750Z,10.80
2017-12-21T10:23:50.351Z,11.10
2017-12-21T10:26:16.668Z,13.37
2017-12-21T10:28:42.934Z,10.90
2017-12-21T10:31:09.975Z,15.13
2017-12-21T10:33:36.232Z,12.27
2017-12-21T10:36:02.528Z,15.53
2017-12-21T10:38:28.839Z,12.30
2017-12-21T10:40:55.115Z,12.03
2017-12-21T10:43:22.119Z,11.83
2017-12-21T10:45:48.412Z,12.17
2017-12-21T10:48:14.739Z,11.83
2017-12-21T10:50:41.008Z,11.47
2017-12-21T10:53:07.317Z,11.67
2017-12-21T10:55:34.331Z,10.70
2017-12-21T10:58:01.363Z,13.20
2017-12-21T11:00:27.702Z,12.53
2017-12-21T11:02:54.003Z,15.83
2017-12-21T11:05:21.038Z,13.27
2017-12-21T11:07:48.081Z,12.80
2017-12-21T11:10:15.108Z,12.40
2017-12-21T11:12:42.138Z,12.77
2017-12-21T11:15:09.179Z,11.93
2017-12-21T11:17:36.213Z,14.63
2017-12-21T11:20:03.257Z,15.07
2017-12-21T11:22:29.608Z,13.70
2017-12-21T11:24:55.917Z,12.03
2017-12-21T11:27:22.260Z,10.93
2017-12-21T11:29:48.572Z,12.10
2017-12-21T11:32:14.864Z,11.70
2017-12-21T11:34:41.907Z,11.87
2017-12-21T11:37:08.204Z,10.10
2017-12-21T11:39:34.501Z,12.90
2017-12-21T11:42:00.787Z,12.10
2017-12-21T11:44:27.857Z,12.57
2017-12-21T11:46:54.123Z,11.47
2017-12-21T11:49:20.388Z,12.00
2017-12-21T11:51:46.716Z,9.50
2017-12-21T11:54:13.047Z,10.50
2017-12-21T11:56:39.331Z,13.50
2017-12-21T11:59:05.644Z,13.90
2017-12-21T12:01:31.912Z,11.43
2017-12-21T12:03:58.218Z,10.57
2017-12-21T12:06:24.519Z,11.10
2017-12-21T12:08:50.804Z,10.53
2017-12-21T12:11:17.091Z,9.90
2017-12-21T12:13:44.148Z,10.23
2017-12-21T12:16:10.419Z,12.43
2017-12-21T12:18:36.675Z,10.20
2017-12-21T12:21:02.984Z,11.03
2017-12-21T12:23:29.994Z,12.57
2017-12-21T12:25:56.275Z,10.57
2017-12-21T12:28:22.608Z,10.57
2017-12-21T12:30:48.888Z,9.13
2017-12-21T12:33:15.164Z,10.60
2017-12-21T12:35:42.199Z,11.80
2017-12-21T12:38:09.207Z,11.67
2017-12-21T12:40:35.484Z,11.93
2017-12-21T12:43:01.806Z,11.97
2017-12-21T12:45:28.107Z,11.70
2017-12-21T12:47:54.410Z,10.43
2017-12-21T12:50:20.738Z,10.67
2017-12-21T12:52:47.002Z,10.70
2017-12-21T12:55:13.270Z,12.93
2017-12-21T12:57:39.581Z,11.67
2017-12-21T13:00:05.863Z,12.30
2017-12-21T13:02:32.122Z,17.43
2017-12-21T13:04:58.411Z,20.47
2017-12-21T13:07:24.700Z,19.43
2017-12-21T13:09:50.988Z,13.53
2017-12-21T13:12:17.298Z,14.83
2017-12-21T13:14:43.575Z,11.03
2017-12-21T13:17:09.902Z,21.40
2017-12-21T13:19:36.303Z,60.60
2017-12-21T13:22:02.826Z,29.43
2017-12-21T13:24:29.845Z,22.43
2017-12-21T13:26:56.900Z,38.63
2017-12-21T13:29:23.184Z,27.73
2017-12-21T13:31:49.467Z,45.23
2017-12-21T13:34:15.765Z,25.63
2017-12-21T13:36:42.040Z,16.77
2017-12-21T13:39:09.051Z,16.63
2017-12-21T13:41:35.364Z,17.43
2017-12-21T13:44:01.644Z,16.53
2017-12-21T13:46:27.912Z,18.27
2017-12-21T13:48:54.219Z,15.90
2017-12-21T13:51:20.524Z,18.10
2017-12-21T13:53:46.787Z,13.83
2017-12-21T13:56:13.843Z,17.17
2017-12-21T13:58:40.136Z,16.27
2017-12-21T14:01:07.194Z,18.17
2017-12-21T14:03:33.545Z,18.07
2017-12-21T14:05:59.861Z,24.20
2017-12-21T14:08:26.137Z,16.53
2017-12-21T14:10:52.457Z,19.27
2017-12-21T14:13:18.728Z,17.07
2017-12-21T14:15:45.011Z,15.73
2017-12-21T14:18:11.294Z,19.80
2017-12-21T14:20:37.566Z,20.60
2017-12-21T14:23:03.827Z,18.27
2017-12-21T14:25:30.122Z,18.90
2017-12-21T14:27:57.155Z,18.23
2017-12-21T14:30:24.171Z,19.50
2017-12-21T14:32:50.459Z,20.13
2017-12-21T14:35:16.779Z,23.70
2017-12-21T14:37:43.072Z,22.70
2017-12-21T14:40:09.459Z,20.73
2017-12-21T14:42:35.752Z,23.93
2017-12-21T14:45:02.028Z,20.83
2017-12-21T14:47:28.327Z,20.03
2017-12-21T14:49:54.595Z,19.57
2017-12-21T14:52:20.876Z,16.67
2017-12-21T14:54:47.340Z,19.43
2017-12-21T14:57:15.017Z,19.03
2017-12-21T14:59:41.339Z,20.77
2017-12-21T15:02:07.679Z,16.73
2017-12-21T15:04:34.028Z,19.33
2017-12-21T15:07:01.057Z,19.37
2017-12-21T15:09:27.502Z,17.37
2017-12-21T15:11:54.517Z,18.00
2017-12-21T15:14:20.969Z,18.33
2017-12-21T15:16:47.908Z,17.03
2017-12-21T15:19:16.162Z,18.00
2017-12-21T15:21:42.507Z,19.97
2017-12-21T15:24:08.983Z,19.93
2017-12-21T15:26:35.318Z,20.23
2017-12-21T15:29:01.606Z,24.10
2017-12-21T15:31:27.987Z,23.47
2017-12-21T15:33:54.259Z,25.93
2017-12-21T15:36:21.317Z,21.17
2017-12-21T15:38:47.674Z,20.47
2017-12-21T15:41:14.060Z,18.47
2017-12-21T15:43:40.331Z,15.53
2017-12-21T15:46:07.358Z,19.43
2017-12-21T15:48:33.627Z,18.50
2017-12-21T15:50:59.882Z,17.80
2017-12-21T15:53:26.185Z,18.87
2017-12-21T15:55:52.476Z,20.93
2017-12-21T15:58:18.759Z,20.23
2017-12-21T16:00:45.047Z,19.33
2017-12-21T16:03:12.079Z,20.07
2017-12-21T16:05:38.362Z,17.20
2017-12-21T16:08:04.704Z,20.80
2017-12-21T16:10:31.055Z,20.70
2017-12-21T16:12:57.366Z,21.10
2017-12-21T16:15:23.696Z,21.10
2017-12-21T16:17:49.982Z,16.13
2017-12-21T16:20:16.245Z,19.67
2017-12-21T16:22:42.544Z,16.07
2017-12-21T16:25:08.810Z,20.17
2017-12-21T16:27:35.092Z,20.23
2017-12-21T16:30:01.489Z,20.90
2017-12-21T16:32:27.793Z,17.63
2017-12-21T16:34:54.077Z,20.07
2017-12-21T16:37:20.380Z,18.93
2017-12-21T16:39:46.676Z,18.27
2017-12-21T16:42:13.718Z,22.83
2017-12-21T16:44:40.772Z,20.90
2017-12-21T16:47:07.048Z,24.07
2017-12-21T16:49:33.827Z,23.43
2017-12-21T16:52:00.195Z,23.63
2017-12-21T16:54:26.500Z,25.17
2017-12-21T16:56:52.778Z,25.07
2017-12-21T16:59:19.836Z,24.30
2017-12-21T17:01:46.900Z,24.50
2017-12-21T17:04:13.955Z,44.17
2017-12-21T17:06:40.311Z,47.87
2017-12-21T17:09:06.596Z,35.43
2017-12-21T17:11:32.919Z,38.20
2017-12-21T17:14:00.054Z,30.83
2017-12-21T17:16:26.419Z,29.30
2017-12-21T17:18:52.723Z,28.87
2017-12-21T17:21:19.039Z,27.07
2017-12-21T17:23:45.323Z,28.53
2017-12-21T17:26:11.640Z,30.37
2017-12-21T17:28:37.955Z,28.87
2017-12-21T17:31:04.323Z,28.57
2017-12-21T17:33:30.760Z,26.53
2017-12-21T17:35:57.840Z,53.50
2017-12-21T17:38:24.127Z,59.20
2017-12-21T17:40:50.440Z,28.10
2017-12-21T17:43:16.820Z,29.70
2017-12-21T17:45:43.284Z,26.93
2017-12-21T17:48:09.596Z,27.40
2017-12-21T17:50:35.919Z,27.90
2017-12-21T17:53:02.215Z,24.90
2017-12-21T17:55:28.539Z,26.03
2017-12-21T17:57:54.890Z,26.57
2017-12-21T18:00:21.206Z,26.70
2017-12-21T18:02:47.524Z,26.40
2017-12-21T18:05:13.879Z,27.17
2017-12-21T18:07:41.046Z,30.00
2017-12-21T18:10:07.321Z,27.90
2017-12-21T18:12:33.729Z,28.10
2017-12-21T18:15:00.017Z,28.10
2017-12-21T18:17:26.291Z,29.07
2017-12-21T18:19:52.643Z,27.57
2017-12-21T18:22:19.016Z,28.63
2017-12-21T18:24:46.296Z,34.17
2017-12-21T18:27:12.730Z,29.90
2017-12-21T18:29:39.287Z,29.57
2017-12-21T18:32:06.512Z,33.03
2017-12-21T18:34:32.983Z,30.93
2017-12-21T18:36:59.410Z,29.53
2017-12-21T18:39:26.047Z,28.97
2017-12-21T18:41:52.375Z,30.30
2017-12-21T18:44:18.684Z,29.57
2017-12-21T18:46:45.025Z,28.93
2017-12-21T18:49:11.339Z,28.23
2017-12-21T18:51:37.647Z,30.33
2017-12-21T18:54:03.932Z,28.70
2017-12-21T18:56:30.275Z,30.57
2017-12-21T18:58:56.624Z,30.03
2017-12-21T19:01:23.679Z,29.90
2017-12-21T19:03:50.062Z,32.00
2017-12-21T19:06:17.202Z,31.67
2017-12-21T19:08:43.543Z,29.67
2017-12-21T19:11:09.933Z,35.33
2017-12-21T19:13:36.219Z,32.20
2017-12-21T19:16:02.522Z,33.77
2017-12-21T19:18:28.841Z,34.33
2017-12-21T19:20:55.130Z,40.00
2017-12-21T19:23:21.463Z,40.90
2017-12-21T19:25:47.799Z,45.27
2017-12-21T19:28:14.123Z,39.40
2017-12-21T19:30:40.463Z,37.13
2017-12-21T19:33:07.527Z,41.00
2017-12-21T19:35:33.800Z,34.20
2017-12-21T19:38:00.089Z,35.37
2017-12-21T19:40:26.432Z,38.00
2017-12-21T19:42:52.728Z,33.67
2017-12-21T19:45:19.045Z,34.67
2017-12-21T19:47:45.353Z,36.63
2017-12-21T19:50:11.660Z,33.60
2017-12-21T19:52:37.953Z,35.97
2017-12-21T19:55:04.279Z,30.90
2017-12-21T19:57:30.612Z,34.23
2017-12-21T19:59:56.949Z,34.80
2017-12-21T20:02:23.234Z,32.67
2017-12-21T20:04:49.545Z,33.77
2017-12-21T20:07:15.830Z,33.63
2017-12-21T20:09:42.176Z,35.73
2017-12-21T20:12:08.510Z,34.13
2017-12-21T20:14:34.815Z,30.97
2017-12-21T20:17:01.127Z,30.87
2017-12-21T20:19:27.444Z,30.43
2017-12-21T20:21:53.762Z,32.83
2017-12-21T20:24:21.165Z,30.80
2017-12-21T20:26:48.208Z,31.07
2017-12-21T20:29:14.515Z,38.30
2017-12-21T20:31:41.662Z,30.53
2017-12-21T20:34:07.972Z,28.87
2017-12-21T20:36:34.355Z,32.23
2017-12-21T20:39:00.747Z,33.00
2017-12-21T20:41:27.060Z,38.80
2017-12-21T20:43:53.340Z,29.10
2017-12-21T20:46:19.660Z,31.27
2017-12-21T20:48:45.975Z,31.07
2017-12-21T20:51:12.308Z,31.73
2017-12-21T20:53:38.619Z,31.57
2017-12-21T20:56:04.932Z,25.30
2017-12-21T20:58:31.226Z,30.83
2017-12-21T21:00:57.700Z,29.57
2017-12-21T21:03:23.985Z,26.40
2017-12-21T21:05:50.342Z,27.80
2017-12-21T21:08:16.675Z,24.57
2017-12-21T21:10:43.699Z,27.87
2017-12-21T21:13:10.020Z,30.90
2017-12-21T21:15:36.347Z,30.63
2017-12-21T21:18:03.424Z,32.10
2017-12-21T21:20:29.730Z,27.63
2017-12-21T21:22:56.038Z,27.77
2017-12-21T21:25:22.374Z,28.07
2017-12-21T21:27:49.357Z,26.30
2017-12-21T21:30:16.460Z,29.20
2017-12-21T21:32:42.791Z,26.37
2017-12-21T21:35:09.196Z,27.37
2017-12-21T21:37:35.577Z,28.20
2017-12-21T21:40:01.881Z,30.53
2017-12-21T21:42:28.199Z,26.40
2017-12-21T21:44:54.589Z,27.20
2017-12-21T21:47:21.705Z,29.43
2017-12-21T21:49:48.265Z,24.83
2017-12-21T21:52:14.604Z,28.63
2017-12-21T21:54:40.907Z,29.50
2017-12-21T21:57:07.236Z,25.20
2017-12-21T21:59:34.285Z,23.90
2017-12-21T22:02:00.584Z,29.90
2017-12-21T22:04:27.623Z,26.47
2017-12-21T22:06:54.779Z,29.97
2017-12-21T22:09:21.084Z,26.70
2017-12-21T22:11:47.375Z,28.20
2017-12-21T22:14:13.686Z,26.77
2017-12-21T22:16:39.969Z,26.83
2017-12-21T22:19:06.256Z,29.83
2017-12-21T22:21:32.615Z,29.70
2017-12-21T22:23:58.977Z,24.27
2017-12-21T22:26:25.277Z,28.17
2017-12-21T22:28:53.800Z,28.73
2017-12-21T22:31:20.291Z,28.30
2017-12-21T22:33:47.915Z,25.73
2017-12-21T22:36:14.224Z,22.70
2017-12-21T22:38:40.649Z,25.17
2017-12-21T22:41:07.699Z,23.67
2017-12-21T22:43:35.351Z,22.07
2017-12-21T22:46:02.687Z,25.53
2017-12-21T22:48:29.648Z,27.47
2017-12-21T22:50:57.596Z,29.43
2017-12-21T22:53:24.039Z,26.20
2017-12-21T22:55:51.100Z,22.83
2017-12-21T22:58:17.424Z,20.70
2017-12-21T23:00:45.023Z,23.97
2017-12-21T23:03:11.356Z,22.83
2017-12-21T23:05:39.873Z,24.20
2017-12-21T23:08:06.940Z,21.53
2017-12-21T23:10:33.764Z,21.53
2017-12-21T23:13:01.092Z,20.90
2017-12-21T23:15:30.151Z,17.30
2017-12-21T23:17:56.643Z,21.20
2017-12-21T23:20:24.737Z,21.47
2017-12-21T23:22:51.140Z,23.13
2017-12-21T23:25:17.445Z,20.63
2017-12-21T23:27:46.300Z,24.87
2017-12-21T23:30:12.587Z,20.70
2017-12-21T23:32:39.628Z,27.97
2017-12-21T23:35:07.172Z,25.50
2017-12-21T23:37:33.487Z,29.27
2017-12-21T23:39:59.800Z,27.87
2017-12-21T23:42:26.860Z,33.00
2017-12-21T23:44:53.173Z,32.23
2017-12-21T23:47:19.479Z,26.43
2017-12-21T23:49:45.804Z,26.83
2017-12-21T23:52:12.147Z,28.63
2017-12-21T23:54:38.480Z,26.43
2017-12-21T23:57:04.848Z,28.40
2017-12-21T23:59:31.138Z,27.87
